Sheridan, MO (64486)

4:24 AM CDT on March 29, 2015 (GMT -0500)
IADOT West of Bedford (HW 2) | | Change Station
CLOSE
Current Station
Personal Weather Station
Location: Bedford, IA
Elevation: 1100 ft
Nearby Weather Stations

Elev 1100 ft 40.68 °N, 94.71 °W | Updated 24 minutes ago

Partly Cloudy
Partly Cloudy
39 °F
Feels Like 32 °F
N
12
Wind Variable Wind from SSE
Gusts 20.0 mph

Today
High -- | Low -- °F
--% Chance of Precip.
Yesterday
High -- | Low -- °F
Precip. -- in
7:07 AM 7:39 PM
Waxing Gibbous, 70% visible
Pressure 29.93 in
Visibility 10.0 miles
Clouds Scattered Clouds 3100 ft
Scattered Clouds 4300 ft
Mostly Cloudy 9000 ft
Windchill 32 °F
Dew Point 36 °F
Humidity 88%
Rainfall in
Snow Depth Not available.
UV 0 out of 12
Pollen 6.60 out of 12
Air Quality Not available.
Flu Activity Not available.
METAR KICL 290915Z AUTO 17010G16KT 10SM SCT031 SCT043 BKN090 05/01 A2993 RMK AO2

More Conditions Fewer Conditions

Pressure 29.93 in
Visibility 10.0 miles
Clouds Scattered Clouds 3100 ft
Scattered Clouds 4300 ft
Mostly Cloudy 9000 ft
Windchill 32 °F
Dew Point 36 °F
Humidity 88%
Rainfall in
Snow Depth Not available.
UV 0 out of 12
Pollen 6.60 out of 12
Air Quality Not available.
Flu Activity Not available.
METAR KICL 290915Z AUTO 17010G16KT 10SM SCT031 SCT043 BKN090 05/01 A2993 RMK AO2

More Conditions Fewer Conditions

10-Day Weather Forecast

Almanac

Astronomy

Mar. 29, 2015 Rise Set
Actual Time
Civil Twilight
Nautical Twilight
Astronomical Twilight
Moon
Length of Visible Light
Length of Day
Tomorrow will be .
, % of the Moon is Illuminated

Today's Extremes

State Highs State Lows

Community

WunderPhotos

Upload Photos

1,809,187 photos uploaded!

WunderBlogs® & News

Nearby

Air Quality

  Air Quality AQ Index Pollutant
Not available.

Snow Depth

Station Depth Elevation

Earthquake Activity

City Distance Mag. Time & Date
Minimum magnitude displayed is 2.5.

Coastal Water Temperatures

Place Temperature

Stations

Nearby Weather Stations

Station Location Temp. Windchill Dew Point Humidity Wind Precip. Elev Updated Type